Time;durP1;ratioP1;P1;durP2;ratioP2;P2;SDS_P1;SDS_P2;PMS_P1;PMS_P2;Temp;Humidity;BMP_temperature;BMP_pressure;BME280_temperature;BME280_humidity;BME280_pressure;Samples;Min_cycle;Max_cycle;Signal;HPM_P1;HPM_P2
2023/06/02 00:01:14;;;;;;;2.88;1.00;;;12.80;99.90;;;;;;5079104;28;20042;-78
2023/06/02 00:03:42;;;;;;;2.08;0.82;;;12.70;99.90;;;;;;5062414;28;20518;-81
2023/06/02 00:06:10;;;;;;;2.47;0.90;;;12.80;99.90;;;;;;5062451;28;20457;-90
2023/06/02 00:08:40;;;;;;;1.23;0.90;;;12.80;99.90;;;;;;5066263;28;20610;-78
2023/06/02 00:11:09;;;;;;;1.20;0.75;;;12.70;99.90;;;;;;5061890;28;20058;-78
2023/06/02 00:13:36;;;;;;;2.10;1.00;;;12.70;99.90;;;;;;5077980;28;20044;-79
2023/06/02 00:16:03;;;;;;;1.17;0.52;;;12.70;99.90;;;;;;5058436;28;20056;-78
2023/06/02 00:18:36;;;;;;;1.20;0.70;;;12.70;99.90;;;;;;5058903;28;20078;-79
2023/06/02 00:21:05;;;;;;;1.40;0.80;;;12.70;99.90;;;;;;5078681;28;20100;-79
2023/06/02 00:23:32;;;;;;;1.52;0.55;;;12.60;99.90;;;;;;5078562;28;20054;-78
2023/06/02 00:26:00;;;;;;;2.00;0.70;;;12.70;99.90;;;;;;5078451;28;20409;-78
2023/06/02 00:28:28;;;;;;;1.30;0.70;;;12.60;99.90;;;;;;5078243;28;20048;-79
2023/06/02 00:30:55;;;;;;;1.48;0.70;;;12.60;99.90;;;;;;5061418;28;20521;-78
2023/06/02 00:33:22;;;;;;;1.10;0.60;;;12.60;99.90;;;;;;5076117;28;20048;-76
2023/06/02 00:35:49;;;;;;;1.27;0.65;;;12.60;99.90;;;;;;5077185;28;20052;-76
2023/06/02 00:38:16;;;;;;;1.92;0.68;;;12.50;99.90;;;;;;5056658;28;20044;-76
2023/06/02 00:40:42;;;;;;;1.73;0.82;;;12.50;99.90;;;;;;5078237;28;20036;-76
2023/06/02 00:43:09;;;;;;;0.82;0.50;;;12.50;99.90;;;;;;5081380;28;20052;-77
2023/06/02 00:45:36;;;;;;;1.13;0.60;;;12.60;99.90;;;;;;5049934;28;20167;-76
2023/06/02 00:48:03;;;;;;;0.50;0.32;;;12.60;99.90;;;;;;5060891;28;20758;-77
2023/06/02 00:50:31;;;;;;;1.95;0.60;;;12.60;99.90;;;;;;5061770;28;20512;-77
2023/06/02 00:52:59;;;;;;;2.67;0.82;;;12.50;99.90;;;;;;5057187;28;20814;-77
2023/06/02 00:55:30;;;;;;;1.05;0.60;;;12.50;99.90;;;;;;5062327;28;20631;-77
2023/06/02 00:57:58;;;;;;;2.92;0.70;;;12.50;99.90;;;;;;5052716;28;20139;-77
2023/06/02 01:00:26;;;;;;;1.38;0.70;;;12.40;99.90;;;;;;5066055;28;20056;-77
2023/06/02 01:02:53;;;;;;;5.10;0.80;;;12.40;99.90;;;;;;5048020;28;20063;-76
2023/06/02 01:05:20;;;;;;;0.60;0.50;;;12.40;99.90;;;;;;5064430;28;20052;-76
2023/06/02 01:07:48;;;;;;;1.27;0.60;;;12.40;99.90;;;;;;5066215;28;20055;-77
2023/06/02 01:10:15;;;;;;;0.38;0.35;;;12.40;99.90;;;;;;5065906;28;20399;-76
2023/06/02 01:12:43;;;;;;;0.75;0.45;;;12.50;99.90;;;;;;5050572;28;20079;-77
2023/06/02 01:15:10;;;;;;;1.02;0.70;;;12.50;99.90;;;;;;5082079;28;20063;-76
2023/06/02 01:17:38;;;;;;;0.57;0.40;;;12.50;99.90;;;;;;5065241;28;20052;-76
2023/06/02 01:20:08;;;;;;;0.38;0.30;;;12.50;99.90;;;;;;5063345;28;20487;-77
2023/06/02 01:22:43;;;;;;;1.45;0.43;;;12.50;99.90;;;;;;5065899;28;20044;-76
2023/06/02 01:25:20;;;;;;;0.40;0.40;;;12.50;99.90;;;;;;5081771;28;20044;-76
2023/06/02 01:27:47;;;;;;;0.82;0.40;;;12.40;99.90;;;;;;5063558;28;20049;-76
2023/06/02 01:30:14;;;;;;;2.50;0.52;;;12.40;99.90;;;;;;5079844;28;20502;-76
2023/06/02 01:32:45;;;;;;;0.75;0.45;;;12.40;99.90;;;;;;5066890;28;20044;-78
2023/06/02 01:35:12;;;;;;;0.40;0.30;;;12.40;99.90;;;;;;5069834;28;20478;-76
2023/06/02 01:37:46;;;;;;;0.47;0.38;;;12.40;99.90;;;;;;5083169;28;20114;-75
2023/06/02 01:40:13;;;;;;;0.40;0.30;;;12.30;99.90;;;;;;5051857;28;20083;-76
2023/06/02 01:42:40;;;;;;;0.65;0.30;;;12.30;99.90;;;;;;5064579;28;20651;-76
2023/06/02 01:45:07;;;;;;;0.40;0.40;;;12.20;99.90;;;;;;5067714;28;20056;-76
2023/06/02 01:47:34;;;;;;;0.47;0.43;;;12.20;99.90;;;;;;5064888;28;20048;-76
2023/06/02 01:50:01;;;;;;;0.40;0.32;;;12.30;99.90;;;;;;5048916;28;20044;-76
2023/06/02 01:52:28;;;;;;;0.50;0.40;;;12.30;99.90;;;;;;5052312;28;20523;-76
2023/06/02 01:54:55;;;;;;;0.20;0.20;;;12.30;99.90;;;;;;5067927;28;20096;-76
2023/06/02 01:57:22;;;;;;;0.30;0.30;;;12.40;99.90;;;;;;5057575;28;20048;-76
2023/06/02 01:59:49;;;;;;;0.73;0.35;;;12.50;99.90;;;;;;5084439;28;20048;-76
2023/06/02 02:02:16;;;;;;;0.65;0.32;;;12.40;99.90;;;;;;5053774;28;20052;-76
2023/06/02 02:04:43;;;;;;;1.15;0.55;;;12.40;99.90;;;;;;5082687;28;20422;-76
2023/06/02 02:07:11;;;;;;;0.65;0.40;;;12.40;99.90;;;;;;5083733;28;20131;-76
2023/06/02 02:09:39;;;;;;;0.60;0.30;;;12.40;99.90;;;;;;5067719;28;20505;-76
2023/06/02 02:12:06;;;;;;;0.63;0.30;;;12.30;99.90;;;;;;5084808;28;20048;-76
2023/06/02 02:14:33;;;;;;;0.93;0.50;;;12.30;99.90;;;;;;5084500;28;20041;-76
2023/06/02 02:17:00;;;;;;;1.30;0.50;;;12.20;99.90;;;;;;5063836;28;20121;-76
2023/06/02 02:19:31;;;;;;;1.08;0.45;;;12.20;99.90;;;;;;5081296;28;20074;-76
2023/06/02 02:21:58;;;;;;;1.02;0.57;;;12.10;99.90;;;;;;5084548;28;20044;-76
2023/06/02 02:24:25;;;;;;;0.77;0.50;;;12.10;99.90;;;;;;5084440;28;20050;-76
2023/06/02 02:26:52;;;;;;;2.22;0.60;;;12.10;99.90;;;;;;5084542;28;20068;-77
2023/06/02 02:29:19;;;;;;;0.65;0.50;;;12.10;99.90;;;;;;5066702;28;20040;-76
2023/06/02 02:31:46;;;;;;;1.27;0.85;;;12.00;99.90;;;;;;5085950;28;20113;-76
2023/06/02 02:34:13;;;;;;;1.00;0.57;;;12.00;99.90;;;;;;5084232;28;20048;-76
2023/06/02 02:36:41;;;;;;;0.93;0.65;;;12.00;99.90;;;;;;5063830;28;20125;-78
2023/06/02 02:39:07;;;;;;;1.35;0.77;;;12.00;99.90;;;;;;5076333;28;20044;-76
2023/06/02 02:41:34;;;;;;;0.82;0.60;;;12.00;99.90;;;;;;5084575;28;20143;-76
2023/06/02 02:44:01;;;;;;;1.23;0.60;;;12.00;99.90;;;;;;5067442;28;20528;-76
2023/06/02 02:46:28;;;;;;;1.25;0.60;;;11.90;99.90;;;;;;5066456;28;20223;-75
2023/06/02 02:48:56;;;;;;;0.98;0.60;;;11.90;99.90;;;;;;5082691;28;20076;-76
2023/06/02 02:51:23;;;;;;;1.20;0.68;;;12.00;99.90;;;;;;5085392;28;20486;-76
2023/06/02 02:53:50;;;;;;;1.70;0.75;;;12.00;99.90;;;;;;5055374;28;20106;-76
2023/06/02 02:56:17;;;;;;;1.90;0.90;;;12.00;99.90;;;;;;5056916;28;20472;-76
2023/06/02 02:58:44;;;;;;;1.23;0.70;;;11.90;99.90;;;;;;5065748;28;20090;-77
2023/06/02 03:01:15;;;;;;;1.67;0.73;;;12.00;99.90;;;;;;5058294;28;20056;-79
2023/06/02 03:03:46;;;;;;;1.35;0.52;;;12.00;99.90;;;;;;5065517;28;20097;-79
2023/06/02 03:06:17;;;;;;;2.13;0.60;;;12.00;99.90;;;;;;5067147;28;20060;-78
2023/06/02 03:08:48;;;;;;;1.10;0.70;;;12.00;99.90;;;;;;5067737;28;20055;-79
2023/06/02 03:11:16;;;;;;;1.35;0.65;;;12.00;99.90;;;;;;5070150;28;20054;-77
2023/06/02 03:13:46;;;;;;;1.33;0.50;;;12.00;99.90;;;;;;5084146;28;20526;-79
2023/06/02 03:16:14;;;;;;;2.53;0.55;;;11.90;99.90;;;;;;5066587;28;20043;-78
2023/06/02 03:18:41;;;;;;;2.53;1.05;;;11.90;99.90;;;;;;5066409;28;20487;-78
2023/06/02 03:21:09;;;;;;;1.98;0.80;;;11.80;99.90;;;;;;5066652;28;20152;-79
2023/06/02 03:23:37;;;;;;;1.73;0.65;;;11.80;99.90;;;;;;5067141;28;20108;-79
2023/06/02 03:26:04;;;;;;;1.02;0.52;;;11.90;99.90;;;;;;5048297;28;20113;-79
2023/06/02 03:28:31;;;;;;;1.58;0.60;;;11.90;99.90;;;;;;5081375;28;20105;-79
2023/06/02 03:30:59;;;;;;;2.03;0.70;;;11.80;99.90;;;;;;5061716;28;20109;-80
2023/06/02 03:33:25;;;;;;;2.22;0.85;;;11.80;99.90;;;;;;5080911;28;20128;-78
2023/06/02 03:35:52;;;;;;;2.25;1.00;;;11.80;99.90;;;;;;5080836;28;20490;-78
2023/06/02 03:38:20;;;;;;;2.22;0.80;;;11.80;99.90;;;;;;5081106;28;20400;-78
2023/06/02 03:40:47;;;;;;;1.92;0.95;;;11.80;99.90;;;;;;5049557;28;20075;-78
2023/06/02 03:43:14;;;;;;;2.72;1.10;;;11.70;99.90;;;;;;5066447;28;20071;-78
2023/06/02 03:45:41;;;;;;;3.53;1.55;;;11.60;99.90;;;;;;5058991;28;20121;-78
2023/06/02 03:48:08;;;;;;;4.15;1.33;;;11.50;99.90;;;;;;5046926;28;20083;-79
2023/06/02 03:50:36;;;;;;;1.55;1.00;;;11.50;99.90;;;;;;5074558;28;20436;-78
2023/06/02 03:53:03;;;;;;;3.55;1.08;;;11.50;99.90;;;;;;5066059;28;20040;-78
2023/06/02 03:55:30;;;;;;;2.10;0.98;;;11.40;99.90;;;;;;5085225;28;20116;-79
2023/06/02 03:57:57;;;;;;;3.10;1.42;;;11.50;99.90;;;;;;5084048;28;20063;-78
2023/06/02 04:00:24;;;;;;;1.77;1.00;;;11.50;99.90;;;;;;5066957;28;20488;-79
2023/06/02 04:02:51;;;;;;;2.00;1.10;;;11.40;99.90;;;;;;5083343;28;20561;-78
2023/06/02 04:05:18;;;;;;;1.80;0.70;;;11.50;99.90;;;;;;5065847;28;20050;-78
2023/06/02 04:07:44;;;;;;;3.08;1.33;;;11.60;99.90;;;;;;5084732;28;20380;-78
2023/06/02 04:10:12;;;;;;;1.73;0.82;;;11.50;99.90;;;;;;5067347;28;20440;-78
2023/06/02 04:12:39;;;;;;;2.28;1.30;;;11.60;99.90;;;;;;5082804;28;20134;-78
2023/06/02 04:15:08;;;;;;;3.13;0.88;;;11.60;99.90;;;;;;5081917;28;20114;-77
2023/06/02 04:17:36;;;;;;;3.33;1.10;;;11.60;99.90;;;;;;5067978;28;20048;-78
2023/06/02 04:20:03;;;;;;;3.72;0.90;;;11.70;99.90;;;;;;5066016;28;20159;-79
2023/06/02 04:22:30;;;;;;;1.25;0.95;;;11.70;99.90;;;;;;5084492;28;20597;-79
2023/06/02 04:24:57;;;;;;;1.63;0.90;;;11.70;99.90;;;;;;5067943;28;20438;-79
2023/06/02 04:27:24;;;;;;;2.08;1.15;;;11.70;99.90;;;;;;5049907;28;20052;-79
2023/06/02 04:29:51;;;;;;;2.05;1.00;;;11.70;99.90;;;;;;5067352;28;20162;-78
2023/06/02 04:32:17;;;;;;;3.95;1.20;;;11.70;99.90;;;;;;5066459;28;20060;-78
2023/06/02 04:34:45;;;;;;;3.40;1.08;;;11.70;99.90;;;;;;5083110;28;20136;-77
2023/06/02 04:37:12;;;;;;;3.42;1.42;;;11.70;99.90;;;;;;5064600;28;20110;-76
2023/06/02 04:39:39;;;;;;;3.65;1.40;;;11.70;99.90;;;;;;5066863;28;20056;-78
2023/06/02 04:42:06;;;;;;;2.45;1.25;;;11.70;99.90;;;;;;5067794;28;20044;-78
2023/06/02 04:44:34;;;;;;;3.97;1.67;;;11.60;99.90;;;;;;5082980;28;20120;-78
2023/06/02 04:47:01;;;;;;;3.97;2.00;;;11.70;99.90;;;;;;5080324;28;20161;-78
2023/06/02 04:49:28;;;;;;;2.72;1.58;;;11.70;99.90;;;;;;5078684;28;20040;-78
2023/06/02 04:51:55;;;;;;;2.67;1.30;;;11.70;99.90;;;;;;5081387;28;20120;-79
2023/06/02 04:54:22;;;;;;;2.40;1.35;;;11.70;99.90;;;;;;5055851;28;20403;-78
2023/06/02 04:56:49;;;;;;;2.92;1.10;;;11.70;99.90;;;;;;5075069;28;20059;-79
2023/06/02 04:59:16;;;;;;;2.83;1.25;;;11.80;99.90;;;;;;5059321;28;20044;-80
2023/06/02 05:01:43;;;;;;;2.03;1.10;;;11.80;99.90;;;;;;5060408;28;20121;-78
2023/06/02 05:04:10;;;;;;;2.17;1.08;;;11.80;99.90;;;;;;5060690;28;20048;-78
2023/06/02 05:06:37;;;;;;;2.15;0.95;;;11.80;99.90;;;;;;5077550;28;20130;-78
2023/06/02 05:09:04;;;;;;;3.55;1.52;;;11.80;99.90;;;;;;5077414;28;20056;-79
2023/06/02 05:11:31;;;;;;;2.60;1.30;;;11.70;99.90;;;;;;5056648;28;20056;-77
2023/06/02 05:13:58;;;;;;;3.20;1.30;;;11.70;99.90;;;;;;5072693;28;20048;-77
2023/06/02 05:16:27;;;;;;;3.13;1.60;;;11.70;99.90;;;;;;5091777;28;20055;-77
2023/06/02 05:18:54;;;;;;;3.03;1.20;;;11.60;99.90;;;;;;5061192;28;20080;-77
2023/06/02 05:21:21;;;;;;;2.70;1.20;;;11.60;99.90;;;;;;5072466;28;20048;-77
2023/06/02 05:23:48;;;;;;;3.88;1.30;;;11.70;99.90;;;;;;5073533;28;20063;-77
2023/06/02 05:26:15;;;;;;;4.10;1.27;;;11.70;99.90;;;;;;5075212;28;20444;-77
2023/06/02 05:28:42;;;;;;;2.42;1.20;;;11.70;99.90;;;;;;5075818;28;20044;-78
2023/06/02 05:31:10;;;;;;;3.05;1.75;;;11.70;99.90;;;;;;5076228;28;20116;-77
2023/06/02 05:33:37;;;;;;;3.35;1.48;;;11.70;99.90;;;;;;5076136;28;20082;-77
2023/06/02 05:36:04;;;;;;;3.83;1.58;;;11.70;99.90;;;;;;5059881;28;20514;-77
2023/06/02 05:38:31;;;;;;;2.45;1.48;;;11.70;99.90;;;;;;5075787;28;20750;-77
2023/06/02 05:40:58;;;;;;;5.22;1.80;;;11.80;99.90;;;;;;5073827;28;20524;-77
2023/06/02 05:43:25;;;;;;;3.95;1.27;;;11.90;99.90;;;;;;5077177;28;20036;-77
2023/06/02 05:45:52;;;;;;;2.60;1.58;;;11.80;99.90;;;;;;5075373;28;20160;-78
2023/06/02 05:48:19;;;;;;;2.60;1.10;;;11.90;99.90;;;;;;5074746;28;20048;-77
2023/06/02 05:50:46;;;;;;;3.03;1.33;;;11.90;99.90;;;;;;5074997;28;20044;-77
2023/06/02 05:53:12;;;;;;;3.13;1.40;;;11.90;99.90;;;;;;5077561;28;20076;-77
2023/06/02 05:55:39;;;;;;;3.17;1.25;;;11.90;99.90;;;;;;5078268;28;20087;-77
2023/06/02 05:58:06;;;;;;;2.45;1.15;;;12.00;99.90;;;;;;5066899;28;20040;-77
2023/06/02 06:00:33;;;;;;;5.10;1.48;;;12.10;99.90;;;;;;5061549;28;20495;-77
2023/06/02 06:03:00;;;;;;;4.35;1.42;;;12.00;99.90;;;;;;5063824;28;20044;-77
2023/06/02 06:05:27;;;;;;;2.90;1.45;;;12.00;99.90;;;;;;5054464;28;20475;-77
2023/06/02 06:07:54;;;;;;;3.28;1.27;;;12.00;99.90;;;;;;5051376;28;20547;-77
2023/06/02 06:10:21;;;;;;;2.50;1.30;;;12.00;99.90;;;;;;5052174;28;20044;-77
2023/06/02 06:12:48;;;;;;;3.60;1.85;;;11.90;99.90;;;;;;5053499;28;20101;-77
2023/06/02 06:15:15;;;;;;;3.55;1.65;;;11.90;99.90;;;;;;5077283;28;20363;-77
2023/06/02 06:17:49;;;;;;;3.90;1.77;;;12.00;99.90;;;;;;5076098;28;20788;-77
2023/06/02 06:20:16;;;;;;;2.80;1.35;;;12.00;99.90;;;;;;5077792;28;20058;-78
2023/06/02 06:22:43;;;;;;;7.03;1.67;;;12.00;99.90;;;;;;5078796;28;20044;-77
2023/06/02 06:25:10;;;;;;;3.65;1.50;;;12.00;99.90;;;;;;5073527;28;20048;-77
2023/06/02 06:27:38;;;;;;;4.00;1.58;;;11.90;99.90;;;;;;5074170;28;20214;-77
2023/06/02 06:30:05;;;;;;;2.58;1.25;;;11.80;99.90;;;;;;5078738;28;20060;-77
2023/06/02 06:32:32;;;;;;;3.97;1.67;;;11.90;99.90;;;;;;5063401;28;20044;-77
2023/06/02 06:34:59;;;;;;;3.63;1.63;;;12.00;99.90;;;;;;5057510;28;20693;-77
2023/06/02 06:37:28;;;;;;;5.40;1.50;;;12.10;99.90;;;;;;5070539;28;20140;-77
2023/06/02 06:39:55;;;;;;;4.40;1.67;;;12.00;99.90;;;;;;5044477;28;20047;-78
2023/06/02 06:42:22;;;;;;;2.90;1.40;;;12.10;99.90;;;;;;5076442;28;20511;-77
2023/06/02 06:44:49;;;;;;;2.58;1.60;;;12.20;99.90;;;;;;5076859;28;20047;-77
2023/06/02 06:47:17;;;;;;;5.13;2.45;;;12.30;99.90;;;;;;5057254;28;20701;-77
2023/06/02 06:49:44;;;;;;;2.47;1.10;;;12.40;99.90;;;;;;5058471;28;20450;-77
2023/06/02 06:52:11;;;;;;;1.77;1.00;;;12.40;99.90;;;;;;5050872;28;20082;-77
2023/06/02 06:54:38;;;;;;;4.13;1.77;;;12.50;99.90;;;;;;5078686;28;20398;-77
2023/06/02 06:57:06;;;;;;;2.40;1.65;;;12.50;99.60;;;;;;5049332;28;20052;-78
2023/06/02 06:59:33;;;;;;;4.13;1.80;;;12.40;99.90;;;;;;5078932;28;20291;-78
2023/06/02 07:01:59;;;;;;;4.80;1.88;;;12.50;99.90;;;;;;5085273;28;20066;-76
2023/06/02 07:04:27;;;;;;;2.65;1.50;;;12.40;99.90;;;;;;5065505;28;20495;-78
2023/06/02 07:06:54;;;;;;;2.55;1.35;;;12.50;99.90;;;;;;5068048;28;20052;-78
2023/06/02 07:09:24;;;;;;;3.30;1.42;;;12.70;99.50;;;;;;5056286;28;20044;-78
2023/06/02 07:11:51;;;;;;;2.97;1.77;;;12.80;99.70;;;;;;5078771;28;20154;-78
2023/06/02 07:14:17;;;;;;;4.57;2.30;;;12.80;99.70;;;;;;5070675;28;20052;-78
2023/06/02 07:16:45;;;;;;;2.22;1.50;;;12.70;99.50;;;;;;5045216;28;20605;-78
2023/06/02 07:19:12;;;;;;;2.70;1.40;;;12.70;99.70;;;;;;5067640;28;20127;-78
2023/06/02 07:21:39;;;;;;;1.98;0.95;;;12.80;99.70;;;;;;5082059;28;20800;-78
2023/06/02 07:24:06;;;;;;;2.63;1.83;;;12.90;99.20;;;;;;5065695;28;20527;-76
2023/06/02 07:26:33;;;;;;;2.13;1.25;;;13.00;99.20;;;;;;5073143;28;20048;-76
2023/06/02 07:29:00;;;;;;;3.22;1.02;;;13.10;99.30;;;;;;5074009;28;20055;-76
2023/06/02 07:31:27;;;;;;;1.67;1.02;;;13.20;98.90;;;;;;5078082;28;20173;-76
2023/06/02 07:33:54;;;;;;;3.63;1.52;;;13.30;98.40;;;;;;5073618;28;20048;-76
2023/06/02 07:36:21;;;;;;;2.63;1.27;;;13.20;98.80;;;;;;5075396;28;20503;-76
2023/06/02 07:38:48;;;;;;;1.88;0.95;;;13.30;98.90;;;;;;5062046;28;20560;-76
2023/06/02 07:41:14;;;;;;;5.65;2.05;;;13.40;98.90;;;;;;5056128;28;20084;-76
2023/06/02 07:43:41;;;;;;;2.80;1.27;;;13.50;98.20;;;;;;5075398;28;20055;-76
2023/06/02 07:46:08;;;;;;;3.85;1.67;;;13.40;98.30;;;;;;5074204;28;20850;-75
2023/06/02 07:48:35;;;;;;;4.18;1.77;;;13.50;98.40;;;;;;5057116;28;20056;-75
2023/06/02 07:51:02;;;;;;;3.17;1.55;;;13.50;98.40;;;;;;5076186;28;20047;-75
2023/06/02 07:53:30;;;;;;;3.33;1.50;;;13.50;98.20;;;;;;5066293;28;20055;-75
2023/06/02 07:55:56;;;;;;;2.15;1.35;;;13.60;98.40;;;;;;5075808;28;20519;-75
2023/06/02 07:58:23;;;;;;;3.10;1.40;;;13.60;98.20;;;;;;5074979;28;20139;-75
2023/06/02 08:00:50;;;;;;;2.53;1.10;;;13.60;98.30;;;;;;5091253;28;20082;-75
2023/06/02 08:03:17;;;;;;;3.08;1.55;;;13.70;98.30;;;;;;5065801;28;20052;-75
2023/06/02 08:05:44;;;;;;;2.92;1.35;;;13.60;98.60;;;;;;5070093;28;20136;-75
2023/06/02 08:08:12;;;;;;;2.53;1.15;;;13.60;98.70;;;;;;5077631;28;20143;-74
2023/06/02 08:10:40;;;;;;;3.95;1.42;;;13.60;98.10;;;;;;5071458;28;20047;-75
2023/06/02 08:13:07;;;;;;;5.70;1.77;;;13.50;98.30;;;;;;5064462;28;20407;-75
2023/06/02 08:15:33;;;;;;;3.10;1.23;;;13.50;98.30;;;;;;5075510;28;20052;-75
2023/06/02 08:18:00;;;;;;;1.73;0.65;;;13.60;98.30;;;;;;5052018;28;20112;-76
2023/06/02 08:20:28;;;;;;;1.48;0.90;;;13.90;98.20;;;;;;5088686;28;20044;-76
2023/06/02 08:22:56;;;;;;;2.25;1.23;;;14.10;97.70;;;;;;5086539;28;20051;-76
2023/06/02 08:25:23;;;;;;;2.08;1.13;;;14.10;96.80;;;;;;5076191;28;21117;-76
2023/06/02 08:27:50;;;;;;;2.33;1.30;;;14.10;96.80;;;;;;5081495;28;20048;-76
2023/06/02 08:30:19;;;;;;;2.47;1.05;;;13.90;97.00;;;;;;5074385;28;20044;-76
2023/06/02 08:32:48;;;;;;;4.72;1.42;;;14.10;97.60;;;;;;5059203;28;20056;-77
2023/06/02 08:35:16;;;;;;;1.27;0.70;;;14.20;96.80;;;;;;5072527;28;20114;-76
2023/06/02 08:37:43;;;;;;;2.33;1.17;;;14.30;97.10;;;;;;5071695;28;20136;-76
2023/06/02 08:40:11;;;;;;;3.55;1.10;;;14.30;96.60;;;;;;5079041;28;20048;-76
2023/06/02 08:42:38;;;;;;;3.67;1.00;;;14.30;96.70;;;;;;5057994;28;20051;-77
2023/06/02 08:45:06;;;;;;;1.98;0.90;;;14.30;96.40;;;;;;5055290;28;20044;-76
2023/06/02 08:47:33;;;;;;;1.30;0.70;;;14.50;96.60;;;;;;5066006;28;20481;-76
2023/06/02 08:50:01;;;;;;;2.05;0.85;;;14.60;96.30;;;;;;5050915;28;20227;-76
2023/06/02 08:52:28;;;;;;;2.83;1.55;;;14.60;96.50;;;;;;5046515;28;20833;-77
2023/06/02 08:54:55;;;;;;;1.70;0.70;;;14.60;96.30;;;;;;5042750;28;20052;-77
2023/06/02 08:57:22;;;;;;;3.10;1.10;;;14.70;96.50;;;;;;5090882;28;20059;-76
2023/06/02 08:59:49;;;;;;;3.13;1.33;;;14.80;96.60;;;;;;5063889;28;20052;-77
2023/06/02 09:02:16;;;;;;;3.83;1.20;;;15.00;96.40;;;;;;5078445;28;20182;-76
2023/06/02 09:04:43;;;;;;;1.98;1.05;;;15.10;95.90;;;;;;5061133;28;20064;-76
2023/06/02 09:07:13;;;;;;;3.72;1.20;;;15.20;96.20;;;;;;5077058;28;20262;-76
2023/06/02 09:09:41;;;;;;;3.42;1.60;;;15.10;96.10;;;;;;5079567;28;20056;-76
2023/06/02 09:12:08;;;;;;;3.30;1.40;;;15.10;95.90;;;;;;5080614;28;20517;-76
2023/06/02 09:14:35;;;;;;;1.92;1.00;;;15.20;95.50;;;;;;5078517;28;20418;-77
2023/06/02 09:17:02;;;;;;;3.03;1.42;;;15.30;96.10;;;;;;5063064;28;20105;-76
2023/06/02 09:19:48;;;;;;;2.42;1.25;;;15.50;95.50;;;;;;5062169;28;20052;-76
2023/06/02 09:22:15;;;;;;;4.15;1.52;;;15.70;95.20;;;;;;5083161;28;20048;-76
2023/06/02 09:24:42;;;;;;;2.92;1.38;;;15.70;95.70;;;;;;5076900;28;20052;-76
2023/06/02 09:27:12;;;;;;;2.00;1.10;;;15.50;95.60;;;;;;5080819;28;20055;-76
2023/06/02 09:29:40;;;;;;;2.33;0.90;;;15.40;96.00;;;;;;5081502;28;20144;-77
2023/06/02 09:32:17;;;;;;;2.03;0.98;;;15.50;95.70;;;;;;5080853;28;20151;-77
2023/06/02 09:34:45;;;;;;;1.45;0.93;;;15.90;95.60;;;;;;5063555;28;20793;-76
2023/06/02 09:37:14;;;;;;;2.78;1.30;;;16.30;95.50;;;;;;5066548;28;20411;-76
2023/06/02 09:39:56;;;;;;;3.70;1.08;;;16.60;94.50;;;;;;5083457;28;20062;-77
2023/06/02 09:42:23;;;;;;;2.63;1.00;;;16.70;94.50;;;;;;5063309;28;20048;-77
2023/06/02 09:45:06;;;;;;;3.47;1.60;;;16.70;94.60;;;;;;5083807;28;20086;-77
2023/06/02 09:47:41;;;;;;;1.70;1.08;;;16.90;94.20;;;;;;5080911;28;20646;-75
2023/06/02 09:50:09;;;;;;;3.67;1.42;;;17.10;94.70;;;;;;5059197;28;20059;-75
2023/06/02 09:52:36;;;;;;;2.92;1.30;;;16.90;94.60;;;;;;5086922;28;20631;-76
2023/06/02 09:55:04;;;;;;;3.38;1.90;;;16.80;94.10;;;;;;5082745;28;20045;-75
2023/06/02 09:57:31;;;;;;;3.67;1.27;;;16.70;93.90;;;;;;5086226;28;20048;-76
2023/06/02 09:59:58;;;;;;;3.08;1.40;;;16.60;93.90;;;;;;5057762;28;20401;-75
2023/06/02 10:02:26;;;;;;;1.90;1.08;;;16.60;94.50;;;;;;5068790;28;20059;-75
2023/06/02 10:04:53;;;;;;;2.75;1.35;;;16.60;94.70;;;;;;5058190;28;20060;-74
2023/06/02 10:07:45;;;;;;;4.20;1.27;;;16.70;93.90;;;;;;5077140;28;20127;-76
2023/06/02 10:10:26;;;;;;;2.75;1.30;;;16.80;93.90;;;;;;5055341;28;20049;-76
2023/06/02 10:13:23;;;;;;;4.30;1.60;;;16.50;94.10;;;;;;5080395;28;20070;-76
2023/06/02 10:16:17;;;;;;;3.75;1.38;;;16.40;94.10;;;;;;5081570;28;20109;-76
2023/06/02 10:19:06;;;;;;;3.00;1.45;;;16.70;95.00;;;;;;5054467;28;20279;-74
2023/06/02 10:21:39;;;;;;;2.78;1.30;;;17.20;93.60;;;;;;5078922;28;20044;-75
2023/06/02 10:24:18;;;;;;;5.63;1.85;;;17.20;93.80;;;;;;5077339;28;20066;-75
2023/06/02 10:27:00;;;;;;;4.22;1.33;;;16.80;93.70;;;;;;5079781;28;20722;-75
2023/06/02 10:29:28;;;;;;;3.83;1.58;;;17.20;93.20;;;;;;5081214;28;20139;-75
2023/06/02 10:31:54;;;;;;;3.80;1.80;;;17.20;93.60;;;;;;5062509;28;20158;-75
2023/06/02 10:34:38;;;;;;;3.40;1.75;;;17.20;93.40;;;;;;5049007;28;20566;-75
2023/06/02 10:37:10;;;;;;;5.32;1.60;;;17.50;93.30;;;;;;5049307;28;20113;-74
2023/06/02 10:39:40;;;;;;;5.32;2.05;;;17.70;92.50;;;;;;5080994;28;20052;-75
2023/06/02 10:42:11;;;;;;;3.58;1.50;;;17.80;92.60;;;;;;5080683;28;20056;-76
2023/06/02 10:44:38;;;;;;;3.03;1.60;;;17.90;92.60;;;;;;5082550;28;20464;-75
2023/06/02 10:47:20;;;;;;;5.45;1.98;;;18.20;92.70;;;;;;5080887;28;20554;-75
2023/06/02 10:50:01;;;;;;;4.13;1.75;;;18.00;92.70;;;;;;5080904;28;20044;-75
2023/06/02 10:52:51;;;;;;;3.22;1.95;;;17.80;93.00;;;;;;5087577;28;20051;-75
2023/06/02 10:55:18;;;;;;;4.53;2.15;;;17.90;92.10;;;;;;5083136;28;20117;-76
2023/06/02 10:57:57;;;;;;;4.13;1.70;;;17.90;92.10;;;;;;5083431;28;20075;-75
2023/06/02 11:00:35;;;;;;;2.42;1.52;;;17.80;92.70;;;;;;5086007;28;20124;-75
2023/06/02 11:03:03;;;;;;;3.90;1.83;;;17.90;92.20;;;;;;5079678;28;20046;-75
2023/06/02 11:05:31;;;;;;;3.42;1.83;;;18.30;92.50;;;;;;5091551;28;20075;-74
2023/06/02 11:08:21;;;;;;;3.65;1.70;;;18.50;92.50;;;;;;5066940;28;20139;-76
2023/06/02 11:10:50;;;;;;;2.85;1.20;;;18.50;92.00;;;;;;5086525;28;20116;-75
2023/06/02 11:13:20;;;;;;;2.25;1.02;;;18.80;92.20;;;;;;5082564;28;20127;-75
2023/06/02 11:16:10;;;;;;;2.25;1.50;;;19.10;90.90;;;;;;5064405;28;20048;-76
2023/06/02 11:18:37;;;;;;;3.35;1.73;;;19.20;91.10;;;;;;5068653;28;20471;-75
2023/06/02 11:21:15;;;;;;;3.28;1.90;;;19.40;91.00;;;;;;5082871;28;20050;-76
2023/06/02 11:23:42;;;;;;;2.92;1.50;;;19.50;90.80;;;;;;5078281;28;20101;-76
2023/06/02 11:26:19;;;;;;;2.53;1.10;;;19.60;90.40;;;;;;5074994;28;20036;-75
2023/06/02 11:28:46;;;;;;;3.45;1.60;;;19.90;90.30;;;;;;5093968;28;20059;-75
2023/06/02 11:31:19;;;;;;;4.90;1.73;;;20.00;90.40;;;;;;5068596;28;20055;-75
2023/06/02 11:33:52;;;;;;;3.97;1.58;;;20.10;90.50;;;;;;5081388;28;20044;-75
2023/06/02 11:36:29;;;;;;;3.72;2.28;;;20.30;89.70;;;;;;5068471;28;20715;-75
2023/06/02 11:39:08;;;;;;;4.00;1.85;;;20.40;90.00;;;;;;5062064;28;20122;-75
2023/06/02 11:41:35;;;;;;;2.70;1.30;;;20.30;89.90;;;;;;5082739;28;20929;-75
2023/06/02 11:44:11;;;;;;;2.88;1.42;;;20.70;90.00;;;;;;5080764;28;20052;-75
2023/06/02 11:46:41;;;;;;;3.20;1.40;;;21.00;89.00;;;;;;5072294;28;20066;-75
2023/06/02 11:49:07;;;;;;;3.70;1.63;;;21.10;88.30;;;;;;5078004;28;20506;-75
2023/06/02 11:51:35;;;;;;;2.45;1.30;;;20.90;89.30;;;;;;5081487;28;20052;-75
2023/06/02 11:54:03;;;;;;;5.00;1.58;;;21.20;89.10;;;;;;5082455;28;20483;-75
2023/06/02 11:56:30;;;;;;;4.53;2.13;;;21.30;87.90;;;;;;5091120;28;20063;-75
2023/06/02 11:58:57;;;;;;;3.50;1.77;;;21.30;87.30;;;;;;5065429;28;20112;-75
2023/06/02 12:01:25;;;;;;;4.13;1.92;;;21.50;86.40;;;;;;5080392;28;20043;-79
2023/06/02 12:04:05;;;;;;;4.38;1.92;;;21.40;86.50;;;;;;5080070;28;20107;-79
2023/06/02 12:06:46;;;;;;;2.72;1.77;;;21.70;87.10;;;;;;5081738;28;20056;-78
2023/06/02 12:09:14;;;;;;;3.63;1.58;;;21.90;86.30;;;;;;5065536;28;20130;-79
2023/06/02 12:11:41;;;;;;;3.75;1.50;;;22.30;85.10;;;;;;5061056;28;20060;-79
2023/06/02 12:14:09;;;;;;;3.30;2.08;;;22.30;85.00;;;;;;5058755;28;20381;-79
2023/06/02 12:16:40;;;;;;;5.13;1.90;;;22.20;85.00;;;;;;5076935;28;20052;-79
2023/06/02 12:19:20;;;;;;;4.95;2.05;;;22.40;84.20;;;;;;5068908;28;20039;-79
2023/06/02 12:21:48;;;;;;;3.92;1.48;;;22.40;84.40;;;;;;5071694;28;20044;-78
2023/06/02 12:24:28;;;;;;;3.83;1.60;;;22.90;83.30;;;;;;5061841;28;20466;-80
2023/06/02 12:26:55;;;;;;;3.22;1.70;;;23.30;84.90;;;;;;5088324;28;20081;-79
2023/06/02 12:29:22;;;;;;;4.80;2.15;;;23.40;83.90;;;;;;5046051;28;20056;-80
2023/06/02 12:31:56;;;;;;;4.30;1.88;;;23.10;83.60;;;;;;5076208;28;20083;-79
2023/06/02 12:34:23;;;;;;;4.18;2.13;;;23.20;83.20;;;;;;5060799;28;20063;-79
2023/06/02 12:36:51;;;;;;;6.18;2.00;;;22.90;82.90;;;;;;5082195;28;20153;-77
2023/06/02 12:39:18;;;;;;;4.50;1.95;;;23.10;81.80;;;;;;5081856;28;20083;-77
2023/06/02 12:41:45;;;;;;;3.97;1.75;;;23.20;81.40;;;;;;5085565;28;20044;-77
2023/06/02 12:44:12;;;;;;;3.88;1.73;;;23.40;82.60;;;;;;5087216;28;20075;-77
2023/06/02 12:46:39;;;;;;;3.13;1.55;;;23.60;81.70;;;;;;5104418;28;20056;-78
2023/06/02 12:49:08;;;;;;;3.00;1.52;;;24.00;80.40;;;;;;5099956;28;20064;-77
2023/06/02 12:51:36;;;;;;;2.47;1.27;;;24.20;79.40;;;;;;5084363;28;20072;-77
2023/06/02 12:54:02;;;;;;;3.78;1.63;;;24.40;78.90;;;;;;5067739;28;20052;-77
2023/06/02 12:56:29;;;;;;;4.20;2.78;;;24.30;79.80;;;;;;5077418;28;20063;-77